Berazategui, Argentina
Current Conditions -  °F | °C
As of 2:00 AM on Saturday 20 Dec 2014 (Local Time) from SABE Reporting Station
Clear Clear  
Wind Chill: 77°   Ceiling: Unl
Heat Index: 79°   Visibility: 6mi
Dew Point: 64°   Wind: 15mph
Humidity: 65%   Direction: 330°NNW
Pressure: 29.53"   Gusts: NA
Location:  34.77°S, 58.22°W
Report Text: SABE 200500Z 33013KT CAVOK 25/18 Q1000
Loading
Personal Weather Stations






























Interactive Weather Map New forecast layout! Learn more

10-Day Weather Forecast

Advertisements
Track Severe Weather on mobile